< < Back
Terminal Aerodrome Forecast


Current Version              Previous Versions:   1  2  3  4  5  6  7  8  9  

Terminal Aerodrome Forecast

268
FTUS44 KMOB 241721
TAFPNS
TAF
KPNS 241721Z 2418/2518 VRB04KT P6SM SCT030
     FM242000 20013KT P6SM SKC
     FM250300 VRB03KT P6SM SKC=



Latest METAR

183
SAUS70 KWBC 250300 RRK
MTRPNS
METAR KPNS 250253Z 24005KT 10SM CLR 28/22 A3005 RMK AO2 SLP177 T02780217
53008


USA.gov is the U.S. government's official web portal to all federal, state and local government web resources and services.